sensor_id;sensor_type;location;lat;lon;timestamp;temperature;humidity
12309;DHT22;6217;48.150;17.142;2023-07-31T00:01:06;22.20;81.10
12309;DHT22;6217;48.150;17.142;2023-07-31T00:05:12;22.10;81.20
12309;DHT22;6217;48.150;17.142;2023-07-31T00:09:18;22.00;81.50
12309;DHT22;6217;48.150;17.142;2023-07-31T00:13:24;22.00;81.50
12309;DHT22;6217;48.150;17.142;2023-07-31T00:17:30;21.90;81.30
12309;DHT22;6217;48.150;17.142;2023-07-31T00:21:36;21.80;81.30
12309;DHT22;6217;48.150;17.142;2023-07-31T00:25:42;21.80;81.40
12309;DHT22;6217;48.150;17.142;2023-07-31T00:29:48;21.80;81.50
12309;DHT22;6217;48.150;17.142;2023-07-31T00:33:53;21.70;81.50
12309;DHT22;6217;48.150;17.142;2023-07-31T00:37:59;21.70;81.60
12309;DHT22;6217;48.150;17.142;2023-07-31T00:42:05;21.70;81.50
12309;DHT22;6217;48.150;17.142;2023-07-31T00:46:11;21.60;81.40
12309;DHT22;6217;48.150;17.142;2023-07-31T00:50:17;21.60;81.40
12309;DHT22;6217;48.150;17.142;2023-07-31T00:54:24;21.50;81.50
12309;DHT22;6217;48.150;17.142;2023-07-31T00:58:29;21.50;81.70
12309;DHT22;6217;48.150;17.142;2023-07-31T01:02:36;21.40;81.60
12309;DHT22;6217;48.150;17.142;2023-07-31T01:06:53;21.30;81.80
12309;DHT22;6217;48.150;17.142;2023-07-31T01:11:10;21.30;82.20
12309;DHT22;6217;48.150;17.142;2023-07-31T01:15:23;21.20;82.20
12309;DHT22;6217;48.150;17.142;2023-07-31T01:19:29;21.10;82.20
12309;DHT22;6217;48.150;17.142;2023-07-31T01:24:04;21.00;82.30
12309;DHT22;6217;48.150;17.142;2023-07-31T01:32:56;21.00;82.30
12309;DHT22;6217;48.150;17.142;2023-07-31T01:37:03;21.00;82.10
12309;DHT22;6217;48.150;17.142;2023-07-31T01:41:09;21.00;82.10
12309;DHT22;6217;48.150;17.142;2023-07-31T01:45:15;20.90;81.90
12309;DHT22;6217;48.150;17.142;2023-07-31T01:49:21;20.90;82.00
12309;DHT22;6217;48.150;17.142;2023-07-31T01:53:27;20.90;82.20
12309;DHT22;6217;48.150;17.142;2023-07-31T01:57:33;20.80;82.40
12309;DHT22;6217;48.150;17.142;2023-07-31T02:01:39;20.80;82.70
12309;DHT22;6217;48.150;17.142;2023-07-31T02:05:46;20.80;82.60
12309;DHT22;6217;48.150;17.142;2023-07-31T02:09:52;20.80;82.20
12309;DHT22;6217;48.150;17.142;2023-07-31T02:13:59;20.80;81.80
12309;DHT22;6217;48.150;17.142;2023-07-31T02:18:05;20.80;81.40
12309;DHT22;6217;48.150;17.142;2023-07-31T02:22:11;20.80;81.20
12309;DHT22;6217;48.150;17.142;2023-07-31T02:26:17;20.80;81.10
12309;DHT22;6217;48.150;17.142;2023-07-31T02:30:23;20.80;80.90
12309;DHT22;6217;48.150;17.142;2023-07-31T02:34:29;20.80;80.60
12309;DHT22;6217;48.150;17.142;2023-07-31T02:38:35;20.70;80.40
12309;DHT22;6217;48.150;17.142;2023-07-31T02:42:41;20.60;80.30
12309;DHT22;6217;48.150;17.142;2023-07-31T02:46:47;20.60;80.20
12309;DHT22;6217;48.150;17.142;2023-07-31T02:50:54;20.60;80.00
12309;DHT22;6217;48.150;17.142;2023-07-31T02:55:00;20.60;80.00
12309;DHT22;6217;48.150;17.142;2023-07-31T02:59:06;20.60;79.90
12309;DHT22;6217;48.150;17.142;2023-07-31T03:03:12;20.60;80.00
12309;DHT22;6217;48.150;17.142;2023-07-31T03:07:18;20.50;79.90
12309;DHT22;6217;48.150;17.142;2023-07-31T03:11:24;20.50;79.60
12309;DHT22;6217;48.150;17.142;2023-07-31T03:15:30;20.50;79.50
12309;DHT22;6217;48.150;17.142;2023-07-31T03:19:36;20.40;79.70
12309;DHT22;6217;48.150;17.142;2023-07-31T03:23:42;20.40;79.90
12309;DHT22;6217;48.150;17.142;2023-07-31T03:27:49;20.30;79.90
12309;DHT22;6217;48.150;17.142;2023-07-31T03:31:55;20.30;79.90
12309;DHT22;6217;48.150;17.142;2023-07-31T03:36:01;20.30;80.10
12309;DHT22;6217;48.150;17.142;2023-07-31T03:40:08;20.30;80.30
12309;DHT22;6217;48.150;17.142;2023-07-31T03:44:14;20.20;80.40
12309;DHT22;6217;48.150;17.142;2023-07-31T03:48:20;20.20;80.50
12309;DHT22;6217;48.150;17.142;2023-07-31T03:52:26;20.20;80.20
12309;DHT22;6217;48.150;17.142;2023-07-31T03:56:32;20.20;80.00
12309;DHT22;6217;48.150;17.142;2023-07-31T04:00:39;20.30;79.80
12309;DHT22;6217;48.150;17.142;2023-07-31T04:04:45;20.30;79.60
12309;DHT22;6217;48.150;17.142;2023-07-31T04:08:51;20.30;79.50
12309;DHT22;6217;48.150;17.142;2023-07-31T04:12:57;20.30;79.20
12309;DHT22;6217;48.150;17.142;2023-07-31T04:17:03;20.30;79.10
12309;DHT22;6217;48.150;17.142;2023-07-31T04:21:09;20.40;78.90
12309;DHT22;6217;48.150;17.142;2023-07-31T04:25:15;20.40;79.00
12309;DHT22;6217;48.150;17.142;2023-07-31T04:29:21;20.40;79.10
12309;DHT22;6217;48.150;17.142;2023-07-31T04:33:27;20.40;79.50
12309;DHT22;6217;48.150;17.142;2023-07-31T04:37:33;20.50;79.50
12309;DHT22;6217;48.150;17.142;2023-07-31T04:41:39;20.50;79.40
12309;DHT22;6217;48.150;17.142;2023-07-31T04:45:46;20.60;79.20
12309;DHT22;6217;48.150;17.142;2023-07-31T04:49:55;20.50;79.10
12309;DHT22;6217;48.150;17.142;2023-07-31T04:54:01;20.60;79.10
12309;DHT22;6217;48.150;17.142;2023-07-31T04:58:07;20.70;78.70
12309;DHT22;6217;48.150;17.142;2023-07-31T05:02:13;20.70;78.10
12309;DHT22;6217;48.150;17.142;2023-07-31T05:06:19;20.70;77.90
12309;DHT22;6217;48.150;17.142;2023-07-31T05:10:26;20.80;77.60
12309;DHT22;6217;48.150;17.142;2023-07-31T05:14:32;20.90;77.20
12309;DHT22;6217;48.150;17.142;2023-07-31T05:18:37;21.00;76.90
12309;DHT22;6217;48.150;17.142;2023-07-31T05:22:43;21.00;76.90
12309;DHT22;6217;48.150;17.142;2023-07-31T05:26:49;21.10;76.70
12309;DHT22;6217;48.150;17.142;2023-07-31T05:31:00;21.20;76.50
12309;DHT22;6217;48.150;17.142;2023-07-31T05:35:06;21.30;76.00
12309;DHT22;6217;48.150;17.142;2023-07-31T05:39:12;21.40;75.60
12309;DHT22;6217;48.150;17.142;2023-07-31T05:43:18;21.40;75.20
12309;DHT22;6217;48.150;17.142;2023-07-31T05:47:24;21.40;75.20
12309;DHT22;6217;48.150;17.142;2023-07-31T05:51:30;21.50;74.90
12309;DHT22;6217;48.150;17.142;2023-07-31T05:55:36;21.60;74.70
12309;DHT22;6217;48.150;17.142;2023-07-31T05:59:42;21.70;74.50
12309;DHT22;6217;48.150;17.142;2023-07-31T06:03:48;21.80;74.30
12309;DHT22;6217;48.150;17.142;2023-07-31T06:07:54;21.90;74.00
12309;DHT22;6217;48.150;17.142;2023-07-31T06:11:59;22.10;73.50
12309;DHT22;6217;48.150;17.142;2023-07-31T06:16:05;22.30;72.70
12309;DHT22;6217;48.150;17.142;2023-07-31T06:20:11;22.50;72.00
12309;DHT22;6217;48.150;17.142;2023-07-31T06:24:17;22.60;71.40
12309;DHT22;6217;48.150;17.142;2023-07-31T06:28:29;22.80;71.00
12309;DHT22;6217;48.150;17.142;2023-07-31T06:32:35;22.80;70.40
12309;DHT22;6217;48.150;17.142;2023-07-31T06:36:41;22.90;70.30
12309;DHT22;6217;48.150;17.142;2023-07-31T06:40:47;23.10;69.90
12309;DHT22;6217;48.150;17.142;2023-07-31T06:44:54;23.10;69.30
12309;DHT22;6217;48.150;17.142;2023-07-31T06:49:00;23.30;68.80
12309;DHT22;6217;48.150;17.142;2023-07-31T06:53:06;23.50;68.40
12309;DHT22;6217;48.150;17.142;2023-07-31T06:57:12;23.70;67.50
12309;DHT22;6217;48.150;17.142;2023-07-31T07:01:18;23.70;67.00
12309;DHT22;6217;48.150;17.142;2023-07-31T07:05:24;23.60;66.00
12309;DHT22;6217;48.150;17.142;2023-07-31T07:09:30;23.60;66.00
12309;DHT22;6217;48.150;17.142;2023-07-31T07:13:36;23.70;65.20
12309;DHT22;6217;48.150;17.142;2023-07-31T07:17:42;23.70;64.80
12309;DHT22;6217;48.150;17.142;2023-07-31T07:21:48;23.90;64.50
12309;DHT22;6217;48.150;17.142;2023-07-31T07:25:53;23.90;63.70
12309;DHT22;6217;48.150;17.142;2023-07-31T07:30:00;23.90;63.60
12309;DHT22;6217;48.150;17.142;2023-07-31T07:34:06;23.90;63.60
12309;DHT22;6217;48.150;17.142;2023-07-31T07:38:14;24.00;63.50
12309;DHT22;6217;48.150;17.142;2023-07-31T07:42:20;24.10;63.40
12309;DHT22;6217;48.150;17.142;2023-07-31T07:46:26;24.20;63.40
12309;DHT22;6217;48.150;17.142;2023-07-31T07:50:32;24.40;63.30
12309;DHT22;6217;48.150;17.142;2023-07-31T07:54:38;24.60;62.80
12309;DHT22;6217;48.150;17.142;2023-07-31T07:58:44;24.70;62.30
12309;DHT22;6217;48.150;17.142;2023-07-31T08:02:50;24.90;62.10
12309;DHT22;6217;48.150;17.142;2023-07-31T08:06:56;25.10;61.30
12309;DHT22;6217;48.150;17.142;2023-07-31T08:11:02;25.20;60.10
12309;DHT22;6217;48.150;17.142;2023-07-31T08:15:08;25.30;59.30
12309;DHT22;6217;48.150;17.142;2023-07-31T08:19:14;25.90;58.20
12309;DHT22;6217;48.150;17.142;2023-07-31T08:23:20;26.60;56.90
12309;DHT22;6217;48.150;17.142;2023-07-31T08:27:26;27.00;55.80
12309;DHT22;6217;48.150;17.142;2023-07-31T08:31:32;26.70;55.30
12309;DHT22;6217;48.150;17.142;2023-07-31T08:35:38;26.50;55.20
12309;DHT22;6217;48.150;17.142;2023-07-31T08:39:44;26.20;54.60
12309;DHT22;6217;48.150;17.142;2023-07-31T08:43:50;25.90;53.90
12309;DHT22;6217;48.150;17.142;2023-07-31T08:47:58;25.70;53.40
12309;DHT22;6217;48.150;17.142;2023-07-31T08:52:05;25.60;52.90
12309;DHT22;6217;48.150;17.142;2023-07-31T08:56:11;25.50;52.50
12309;DHT22;6217;48.150;17.142;2023-07-31T09:00:19;25.50;52.50
12309;DHT22;6217;48.150;17.142;2023-07-31T09:04:30;25.60;52.60
12309;DHT22;6217;48.150;17.142;2023-07-31T09:08:41;25.50;51.90
12309;DHT22;6217;48.150;17.142;2023-07-31T09:12:50;25.50;51.80
12309;DHT22;6217;48.150;17.142;2023-07-31T09:16:58;25.70;52.20
12309;DHT22;6217;48.150;17.142;2023-07-31T09:21:05;25.80;51.70
12309;DHT22;6217;48.150;17.142;2023-07-31T09:25:19;25.80;51.50
12309;DHT22;6217;48.150;17.142;2023-07-31T09:29:28;25.80;51.40
12309;DHT22;6217;48.150;17.142;2023-07-31T09:33:54;25.80;51.40
12309;DHT22;6217;48.150;17.142;2023-07-31T09:38:05;25.90;50.90
12309;DHT22;6217;48.150;17.142;2023-07-31T09:42:11;25.90;51.00
12309;DHT22;6217;48.150;17.142;2023-07-31T09:46:20;25.90;50.70
12309;DHT22;6217;48.150;17.142;2023-07-31T09:50:27;25.80;50.60
12309;DHT22;6217;48.150;17.142;2023-07-31T09:54:32;25.90;50.90
12309;DHT22;6217;48.150;17.142;2023-07-31T09:58:38;26.10;50.60
12309;DHT22;6217;48.150;17.142;2023-07-31T10:02:46;26.10;49.90
12309;DHT22;6217;48.150;17.142;2023-07-31T10:06:53;26.20;49.90
12309;DHT22;6217;48.150;17.142;2023-07-31T10:11:00;26.20;49.30
12309;DHT22;6217;48.150;17.142;2023-07-31T10:15:08;26.30;48.80
12309;DHT22;6217;48.150;17.142;2023-07-31T10:19:15;26.40;48.80
12309;DHT22;6217;48.150;17.142;2023-07-31T10:23:22;26.60;48.60
12309;DHT22;6217;48.150;17.142;2023-07-31T10:27:30;26.70;47.90
12309;DHT22;6217;48.150;17.142;2023-07-31T10:31:36;26.70;47.40
12309;DHT22;6217;48.150;17.142;2023-07-31T10:35:42;26.80;47.30
12309;DHT22;6217;48.150;17.142;2023-07-31T10:40:03;26.90;46.90
12309;DHT22;6217;48.150;17.142;2023-07-31T10:44:13;27.10;46.40
12309;DHT22;6217;48.150;17.142;2023-07-31T10:48:19;27.10;46.30
12309;DHT22;6217;48.150;17.142;2023-07-31T10:52:25;27.20;46.00
12309;DHT22;6217;48.150;17.142;2023-07-31T10:56:37;27.30;46.00
12309;DHT22;6217;48.150;17.142;2023-07-31T11:00:45;27.40;45.60
12309;DHT22;6217;48.150;17.142;2023-07-31T11:05:07;27.40;45.70
12309;DHT22;6217;48.150;17.142;2023-07-31T11:09:14;27.40;45.50
12309;DHT22;6217;48.150;17.142;2023-07-31T11:13:20;27.50;44.90
12309;DHT22;6217;48.150;17.142;2023-07-31T11:17:26;27.50;44.60
12309;DHT22;6217;48.150;17.142;2023-07-31T11:21:32;27.40;44.20
12309;DHT22;6217;48.150;17.142;2023-07-31T11:25:39;27.20;44.80
12309;DHT22;6217;48.150;17.142;2023-07-31T11:29:50;27.10;43.70
12309;DHT22;6217;48.150;17.142;2023-07-31T11:34:06;27.00;43.80
12309;DHT22;6217;48.150;17.142;2023-07-31T11:38:21;27.10;43.70
12309;DHT22;6217;48.150;17.142;2023-07-31T11:42:31;27.20;43.20
12309;DHT22;6217;48.150;17.142;2023-07-31T11:46:36;27.00;43.30
12309;DHT22;6217;48.150;17.142;2023-07-31T11:50:43;27.00;43.40
12309;DHT22;6217;48.150;17.142;2023-07-31T11:54:51;26.90;43.40
12309;DHT22;6217;48.150;17.142;2023-07-31T11:58:58;26.90;43.40
12309;DHT22;6217;48.150;17.142;2023-07-31T12:03:05;26.90;43.90
12309;DHT22;6217;48.150;17.142;2023-07-31T12:07:11;26.90;44.20
12309;DHT22;6217;48.150;17.142;2023-07-31T12:11:18;26.90;44.30
12309;DHT22;6217;48.150;17.142;2023-07-31T12:15:39;26.80;44.60
12309;DHT22;6217;48.150;17.142;2023-07-31T12:19:48;26.90;44.80
12309;DHT22;6217;48.150;17.142;2023-07-31T12:23:55;27.10;45.00
12309;DHT22;6217;48.150;17.142;2023-07-31T12:28:05;27.20;44.80
12309;DHT22;6217;48.150;17.142;2023-07-31T12:32:22;27.40;44.50
12309;DHT22;6217;48.150;17.142;2023-07-31T12:36:35;27.40;44.20
12309;DHT22;6217;48.150;17.142;2023-07-31T12:40:41;27.50;44.50
12309;DHT22;6217;48.150;17.142;2023-07-31T12:44:47;27.50;44.50
12309;DHT22;6217;48.150;17.142;2023-07-31T12:48:54;27.50;44.70
12309;DHT22;6217;48.150;17.142;2023-07-31T12:53:00;27.40;44.60
12309;DHT22;6217;48.150;17.142;2023-07-31T12:57:06;27.30;44.60
12309;DHT22;6217;48.150;17.142;2023-07-31T13:01:12;27.10;44.70
12309;DHT22;6217;48.150;17.142;2023-07-31T13:05:18;27.10;44.70
12309;DHT22;6217;48.150;17.142;2023-07-31T13:09:25;27.00;44.20
12309;DHT22;6217;48.150;17.142;2023-07-31T13:13:31;27.00;43.90
12309;DHT22;6217;48.150;17.142;2023-07-31T13:17:37;27.10;44.00
12309;DHT22;6217;48.150;17.142;2023-07-31T13:21:43;27.20;44.20
12309;DHT22;6217;48.150;17.142;2023-07-31T13:25:49;27.20;43.90
12309;DHT22;6217;48.150;17.142;2023-07-31T13:29:55;27.30;43.70
12309;DHT22;6217;48.150;17.142;2023-07-31T13:34:01;27.20;43.60
12309;DHT22;6217;48.150;17.142;2023-07-31T13:38:07;27.30;43.60
12309;DHT22;6217;48.150;17.142;2023-07-31T13:42:13;27.30;43.60
12309;DHT22;6217;48.150;17.142;2023-07-31T13:46:19;27.30;43.50
12309;DHT22;6217;48.150;17.142;2023-07-31T13:50:25;27.30;43.40
12309;DHT22;6217;48.150;17.142;2023-07-31T13:54:30;27.20;43.50
12309;DHT22;6217;48.150;17.142;2023-07-31T13:58:36;27.10;43.70
12309;DHT22;6217;48.150;17.142;2023-07-31T14:02:42;27.00;43.10
12309;DHT22;6217;48.150;17.142;2023-07-31T14:06:48;26.90;42.60
12309;DHT22;6217;48.150;17.142;2023-07-31T14:10:56;26.90;42.90
12309;DHT22;6217;48.150;17.142;2023-07-31T14:15:02;26.90;42.90
12309;DHT22;6217;48.150;17.142;2023-07-31T14:19:08;26.90;43.00
12309;DHT22;6217;48.150;17.142;2023-07-31T14:23:14;26.90;43.10
12309;DHT22;6217;48.150;17.142;2023-07-31T14:27:22;26.90;43.10
12309;DHT22;6217;48.150;17.142;2023-07-31T14:31:28;26.90;43.20
12309;DHT22;6217;48.150;17.142;2023-07-31T14:35:35;26.90;43.10
12309;DHT22;6217;48.150;17.142;2023-07-31T14:39:40;26.90;42.80
12309;DHT22;6217;48.150;17.142;2023-07-31T14:43:46;26.90;42.90
12309;DHT22;6217;48.150;17.142;2023-07-31T14:47:52;27.00;42.80
12309;DHT22;6217;48.150;17.142;2023-07-31T14:51:58;26.90;42.30
12309;DHT22;6217;48.150;17.142;2023-07-31T14:56:04;27.00;42.20
12309;DHT22;6217;48.150;17.142;2023-07-31T15:00:10;27.10;42.20
12309;DHT22;6217;48.150;17.142;2023-07-31T15:04:17;27.10;42.30
12309;DHT22;6217;48.150;17.142;2023-07-31T15:08:22;27.00;41.70
12309;DHT22;6217;48.150;17.142;2023-07-31T15:12:29;27.00;41.40
12309;DHT22;6217;48.150;17.142;2023-07-31T15:16:34;27.00;41.40
12309;DHT22;6217;48.150;17.142;2023-07-31T15:20:41;27.00;41.50
12309;DHT22;6217;48.150;17.142;2023-07-31T15:24:46;27.10;41.80
12309;DHT22;6217;48.150;17.142;2023-07-31T15:29:05;27.00;42.10
12309;DHT22;6217;48.150;17.142;2023-07-31T15:33:14;27.00;42.20
12309;DHT22;6217;48.150;17.142;2023-07-31T15:37:21;27.10;42.30
12309;DHT22;6217;48.150;17.142;2023-07-31T15:41:27;27.10;42.10
12309;DHT22;6217;48.150;17.142;2023-07-31T15:45:35;27.10;41.80
12309;DHT22;6217;48.150;17.142;2023-07-31T15:49:40;27.20;42.00
12309;DHT22;6217;48.150;17.142;2023-07-31T15:53:46;27.30;42.80
12309;DHT22;6217;48.150;17.142;2023-07-31T15:57:53;27.30;42.90
12309;DHT22;6217;48.150;17.142;2023-07-31T16:01:58;27.30;42.10
12309;DHT22;6217;48.150;17.142;2023-07-31T16:06:04;27.30;41.80
12309;DHT22;6217;48.150;17.142;2023-07-31T16:10:10;27.20;42.20
12309;DHT22;6217;48.150;17.142;2023-07-31T16:14:18;27.00;42.50
12309;DHT22;6217;48.150;17.142;2023-07-31T16:18:24;26.90;43.40
12309;DHT22;6217;48.150;17.142;2023-07-31T16:22:30;26.70;44.50
12309;DHT22;6217;48.150;17.142;2023-07-31T16:26:36;26.60;45.30
12309;DHT22;6217;48.150;17.142;2023-07-31T16:30:42;26.60;45.70
12309;DHT22;6217;48.150;17.142;2023-07-31T16:34:50;26.60;45.60
12309;DHT22;6217;48.150;17.142;2023-07-31T16:38:56;26.50;45.10
12309;DHT22;6217;48.150;17.142;2023-07-31T16:43:02;26.50;45.20
12309;DHT22;6217;48.150;17.142;2023-07-31T16:47:07;26.50;45.30
12309;DHT22;6217;48.150;17.142;2023-07-31T16:51:13;26.40;45.20
12309;DHT22;6217;48.150;17.142;2023-07-31T16:55:19;26.40;45.40
12309;DHT22;6217;48.150;17.142;2023-07-31T16:59:26;26.40;45.50
12309;DHT22;6217;48.150;17.142;2023-07-31T17:03:32;26.30;45.60
12309;DHT22;6217;48.150;17.142;2023-07-31T17:07:38;26.30;45.80
12309;DHT22;6217;48.150;17.142;2023-07-31T17:11:44;26.30;46.10
12309;DHT22;6217;48.150;17.142;2023-07-31T17:15:50;26.30;46.30
12309;DHT22;6217;48.150;17.142;2023-07-31T17:19:55;26.30;46.80
12309;DHT22;6217;48.150;17.142;2023-07-31T17:24:01;26.30;47.30
12309;DHT22;6217;48.150;17.142;2023-07-31T17:28:07;26.30;46.90
12309;DHT22;6217;48.150;17.142;2023-07-31T17:32:13;26.20;46.50
12309;DHT22;6217;48.150;17.142;2023-07-31T17:36:19;26.20;46.30
12309;DHT22;6217;48.150;17.142;2023-07-31T17:40:25;26.10;46.10
12309;DHT22;6217;48.150;17.142;2023-07-31T17:44:33;26.10;46.10
12309;DHT22;6217;48.150;17.142;2023-07-31T17:48:43;26.00;46.10
12309;DHT22;6217;48.150;17.142;2023-07-31T17:52:52;26.00;46.30
12309;DHT22;6217;48.150;17.142;2023-07-31T17:56:58;26.00;46.50
12309;DHT22;6217;48.150;17.142;2023-07-31T18:01:04;25.90;46.80
12309;DHT22;6217;48.150;17.142;2023-07-31T18:05:10;25.90;47.10
12309;DHT22;6217;48.150;17.142;2023-07-31T18:09:15;25.80;47.40
12309;DHT22;6217;48.150;17.142;2023-07-31T18:13:21;25.70;47.80
12309;DHT22;6217;48.150;17.142;2023-07-31T18:17:27;25.60;48.00
12309;DHT22;6217;48.150;17.142;2023-07-31T18:21:36;25.60;48.20
12309;DHT22;6217;48.150;17.142;2023-07-31T18:25:42;25.50;48.40
12309;DHT22;6217;48.150;17.142;2023-07-31T18:29:47;25.40;48.60
12309;DHT22;6217;48.150;17.142;2023-07-31T18:33:53;25.40;48.90
12309;DHT22;6217;48.150;17.142;2023-07-31T18:37:59;25.30;49.10
12309;DHT22;6217;48.150;17.142;2023-07-31T18:42:06;25.20;49.40
12309;DHT22;6217;48.150;17.142;2023-07-31T18:46:13;25.10;49.60
12309;DHT22;6217;48.150;17.142;2023-07-31T18:50:20;25.10;50.00
12309;DHT22;6217;48.150;17.142;2023-07-31T18:54:26;25.10;50.20
12309;DHT22;6217;48.150;17.142;2023-07-31T18:58:32;25.00;50.40
12309;DHT22;6217;48.150;17.142;2023-07-31T19:02:38;24.90;50.70
12309;DHT22;6217;48.150;17.142;2023-07-31T19:06:45;24.90;51.10
12309;DHT22;6217;48.150;17.142;2023-07-31T19:10:51;24.90;51.70
12309;DHT22;6217;48.150;17.142;2023-07-31T19:14:57;24.80;52.10
12309;DHT22;6217;48.150;17.142;2023-07-31T19:19:03;24.70;52.50
12309;DHT22;6217;48.150;17.142;2023-07-31T19:23:09;24.60;53.00
12309;DHT22;6217;48.150;17.142;2023-07-31T19:27:15;24.50;53.50
12309;DHT22;6217;48.150;17.142;2023-07-31T19:31:21;24.50;53.90
12309;DHT22;6217;48.150;17.142;2023-07-31T19:35:27;24.40;54.20
12309;DHT22;6217;48.150;17.142;2023-07-31T19:39:33;24.30;54.50
12309;DHT22;6217;48.150;17.142;2023-07-31T19:43:39;24.30;54.90
12309;DHT22;6217;48.150;17.142;2023-07-31T19:47:45;24.20;55.10
12309;DHT22;6217;48.150;17.142;2023-07-31T19:51:51;24.30;55.30
12309;DHT22;6217;48.150;17.142;2023-07-31T19:55:57;24.20;55.70
12309;DHT22;6217;48.150;17.142;2023-07-31T20:00:06;24.10;56.10
12309;DHT22;6217;48.150;17.142;2023-07-31T20:04:16;24.10;56.40
12309;DHT22;6217;48.150;17.142;2023-07-31T20:08:22;24.00;56.60
12309;DHT22;6217;48.150;17.142;2023-07-31T20:12:28;23.90;57.00
12309;DHT22;6217;48.150;17.142;2023-07-31T20:16:34;23.90;57.40
12309;DHT22;6217;48.150;17.142;2023-07-31T20:20:44;23.80;57.90
12309;DHT22;6217;48.150;17.142;2023-07-31T20:24:50;23.70;58.20
12309;DHT22;6217;48.150;17.142;2023-07-31T20:28:55;23.70;58.40
12309;DHT22;6217;48.150;17.142;2023-07-31T20:33:01;23.70;58.60
12309;DHT22;6217;48.150;17.142;2023-07-31T20:37:07;23.60;58.80
12309;DHT22;6217;48.150;17.142;2023-07-31T20:41:13;23.50;59.20
12309;DHT22;6217;48.150;17.142;2023-07-31T20:45:19;23.50;59.30
12309;DHT22;6217;48.150;17.142;2023-07-31T20:49:26;23.50;59.60
12309;DHT22;6217;48.150;17.142;2023-07-31T20:53:32;23.50;59.90
12309;DHT22;6217;48.150;17.142;2023-07-31T20:57:38;23.50;60.10
12309;DHT22;6217;48.150;17.142;2023-07-31T21:01:43;23.40;60.40
12309;DHT22;6217;48.150;17.142;2023-07-31T21:05:53;23.40;60.70
12309;DHT22;6217;48.150;17.142;2023-07-31T21:09:59;23.40;61.10
12309;DHT22;6217;48.150;17.142;2023-07-31T21:14:05;23.30;61.20
12309;DHT22;6217;48.150;17.142;2023-07-31T21:18:11;23.30;61.50
12309;DHT22;6217;48.150;17.142;2023-07-31T21:22:17;23.30;61.90
12309;DHT22;6217;48.150;17.142;2023-07-31T21:26:23;23.30;62.20
12309;DHT22;6217;48.150;17.142;2023-07-31T21:30:29;23.20;62.40
12309;DHT22;6217;48.150;17.142;2023-07-31T21:34:36;23.30;62.70
12309;DHT22;6217;48.150;17.142;2023-07-31T21:38:41;23.20;62.90
12309;DHT22;6217;48.150;17.142;2023-07-31T21:42:50;23.30;63.20
12309;DHT22;6217;48.150;17.142;2023-07-31T21:46:56;23.20;63.60
12309;DHT22;6217;48.150;17.142;2023-07-31T21:51:02;23.20;63.70
12309;DHT22;6217;48.150;17.142;2023-07-31T21:55:08;23.20;64.10
12309;DHT22;6217;48.150;17.142;2023-07-31T21:59:14;23.10;64.40
12309;DHT22;6217;48.150;17.142;2023-07-31T22:03:21;23.10;64.60
12309;DHT22;6217;48.150;17.142;2023-07-31T22:07:27;23.00;64.80
12309;DHT22;6217;48.150;17.142;2023-07-31T22:11:32;22.90;65.00
12309;DHT22;6217;48.150;17.142;2023-07-31T22:15:38;22.90;65.10
12309;DHT22;6217;48.150;17.142;2023-07-31T22:19:44;22.90;65.10
12309;DHT22;6217;48.150;17.142;2023-07-31T22:23:50;22.90;65.50
12309;DHT22;6217;48.150;17.142;2023-07-31T22:27:56;22.90;65.60
12309;DHT22;6217;48.150;17.142;2023-07-31T22:32:02;22.90;66.30
12309;DHT22;6217;48.150;17.142;2023-07-31T22:36:08;22.90;65.70
12309;DHT22;6217;48.150;17.142;2023-07-31T22:40:14;22.90;65.80
12309;DHT22;6217;48.150;17.142;2023-07-31T22:44:21;22.90;65.90
12309;DHT22;6217;48.150;17.142;2023-07-31T22:48:27;22.80;65.90
12309;DHT22;6217;48.150;17.142;2023-07-31T22:52:33;22.70;65.80
12309;DHT22;6217;48.150;17.142;2023-07-31T22:56:40;22.70;65.90
12309;DHT22;6217;48.150;17.142;2023-07-31T23:00:46;22.70;65.90
12309;DHT22;6217;48.150;17.142;2023-07-31T23:04:53;22.70;66.20
12309;DHT22;6217;48.150;17.142;2023-07-31T23:08:59;22.70;66.30
12309;DHT22;6217;48.150;17.142;2023-07-31T23:13:05;22.70;66.40
12309;DHT22;6217;48.150;17.142;2023-07-31T23:17:11;22.70;66.70
12309;DHT22;6217;48.150;17.142;2023-07-31T23:21:17;22.70;66.90
12309;DHT22;6217;48.150;17.142;2023-07-31T23:25:23;22.70;67.00
12309;DHT22;6217;48.150;17.142;2023-07-31T23:29:28;22.60;67.20
12309;DHT22;6217;48.150;17.142;2023-07-31T23:33:34;22.60;67.20
12309;DHT22;6217;48.150;17.142;2023-07-31T23:37:40;22.60;67.30
12309;DHT22;6217;48.150;17.142;2023-07-31T23:41:46;22.50;67.40
12309;DHT22;6217;48.150;17.142;2023-07-31T23:45:52;22.40;67.60
12309;DHT22;6217;48.150;17.142;2023-07-31T23:49:58;22.40;67.70
12309;DHT22;6217;48.150;17.142;2023-07-31T23:54:05;22.30;67.80
12309;DHT22;6217;48.150;17.142;2023-07-31T23:58:12;22.30;68.10
